Time;durP1;ratioP1;P1;durP2;ratioP2;P2;SDS_P1;SDS_P2;PMS_P1;PMS_P2;Temp;Humidity;BMP_temperature;BMP_pressure;BME280_temperature;BME280_humidity;BME280_pressure;Samples;Min_cycle;Max_cycle;Signal;HPM_P1;HPM_P2
2022/06/21 00:01:39;;;;;;;2.10;1.53;;;;;;;;;;5060049;28;20438;-86
2022/06/21 00:04:06;;;;;;;1.50;1.40;;;;;;;;;;5055620;28;20532;-85
2022/06/21 00:06:33;;;;;;;1.30;1.20;;;;;;;;;;5056066;28;20451;-88
2022/06/21 00:09:00;;;;;;;1.10;1.00;;;;;;;;;;5055186;28;20471;-85
2022/06/21 00:11:31;;;;;;;4.10;1.00;;;15.00;99.90;;;;;;5055593;28;20803;-86
2022/06/21 00:13:58;;;;;;;1.90;1.63;;;;;;;;;;5055507;28;20453;-86
2022/06/21 00:16:30;;;;;;;1.77;1.30;;;15.00;99.90;;;;;;5051758;28;20447;-84
2022/06/21 00:18:57;;;;;;;1.30;0.90;;;15.00;99.90;;;;;;5055183;28;20451;-87
2022/06/21 00:21:27;;;;;;;2.33;1.50;;;15.10;99.90;;;;;;5054954;28;20956;-84
2022/06/21 00:23:56;;;;;;;1.90;1.40;;;15.40;99.90;;;;;;5053570;28;20469;-84
2022/06/21 00:26:26;;;;;;;4.87;1.43;;;15.20;99.90;;;;;;5055039;28;20451;-84
2022/06/21 00:28:53;;;;;;;1.77;1.27;;;;;;;;;;5053596;28;20486;-83
2022/06/21 00:31:23;;;;;;;1.30;1.10;;;15.20;99.90;;;;;;5054960;28;20446;-83
2022/06/21 00:33:51;;;;;;;4.27;1.50;;;15.20;99.90;;;;;;5054327;28;20464;-85
2022/06/21 00:36:23;;;;;;;3.00;1.33;;;15.00;99.90;;;;;;5054915;28;20458;-84
2022/06/21 00:38:51;;;;;;;1.30;0.87;;;15.30;99.90;;;;;;5053678;28;20449;-86
2022/06/21 00:41:20;;;;;;;2.20;1.30;;;;;;;;;;5054725;28;20446;-84
2022/06/21 00:43:50;;;;;;;2.60;1.27;;;15.40;99.90;;;;;;5054333;28;20508;-87
2022/06/21 00:46:37;;;;;;;1.10;1.00;;;15.40;99.90;;;;;;5052524;28;20505;-85
2022/06/21 00:49:12;;;;;;;1.60;1.23;;;15.40;99.90;;;;;;5054178;28;20533;-84
2022/06/21 00:51:41;;;;;;;1.10;0.87;;;15.40;99.90;;;;;;5033467;28;20821;-85
2022/06/21 00:54:30;;;;;;;3.30;1.73;;;15.40;99.90;;;;;;5034507;28;20931;-83
2022/06/21 00:57:02;;;;;;;2.73;1.10;;;15.70;99.90;;;;;;5034553;28;20455;-82
2022/06/21 00:59:34;;;;;;;1.63;1.10;;;15.30;99.90;;;;;;5034419;28;20459;-83
2022/06/21 01:02:04;;;;;;;1.50;1.37;;;15.60;99.90;;;;;;5034508;28;20455;-85
2022/06/21 01:04:37;;;;;;;1.73;1.17;;;15.40;99.90;;;;;;5034475;28;20982;-85
2022/06/21 01:07:08;;;;;;;1.60;1.50;;;15.40;99.90;;;;;;5033461;28;20981;-85
2022/06/21 01:09:37;;;;;;;1.50;1.17;;;15.40;99.90;;;;;;5035019;28;20474;-83
2022/06/21 01:12:10;;;;;;;1.73;1.27;;;16.00;99.90;;;;;;5035668;28;20450;-85
2022/06/21 01:14:47;;;;;;;2.17;1.47;;;15.40;99.90;;;;;;5035277;28;20455;-86
2022/06/21 01:17:14;;;;;;;1.57;1.33;;;;;;;;;;5034352;28;20451;-83
2022/06/21 01:19:45;;;;;;;1.93;1.20;;;15.40;99.90;;;;;;5034232;28;20458;-83
2022/06/21 01:22:25;;;;;;;1.57;1.40;;;15.40;99.90;;;;;;5032845;28;20937;-83
2022/06/21 01:25:05;;;;;;;1.13;1.00;;;15.30;99.90;;;;;;5034309;28;20487;-83
2022/06/21 01:27:33;;;;;;;5.70;1.87;;;15.30;99.90;;;;;;5034257;28;20443;-84
2022/06/21 01:30:00;;;;;;;2.60;1.10;;;;;;;;;;5033884;28;20475;-87
2022/06/21 01:32:28;;;;;;;1.30;1.20;;;;;;;;;;5033988;28;20455;-83
2022/06/21 01:34:55;;;;;;;2.60;1.27;;;;;;;;;;5034160;28;20447;-86
2022/06/21 01:37:26;;;;;;;1.60;1.13;;;15.00;99.90;;;;;;5033014;28;20459;-84
2022/06/21 01:39:56;;;;;;;1.97;1.40;;;15.00;99.90;;;;;;5033998;28;20443;-86
2022/06/21 01:42:28;;;;;;;1.80;1.27;;;14.90;99.90;;;;;;5034316;28;20456;-86
2022/06/21 01:45:00;;;;;;;1.57;1.47;;;14.80;99.90;;;;;;5033688;28;20491;-85
2022/06/21 01:47:32;;;;;;;1.13;1.00;;;14.80;99.90;;;;;;5033698;28;20447;-85
2022/06/21 01:50:03;;;;;;;1.93;1.23;;;14.70;99.90;;;;;;5033713;28;20547;-84
2022/06/21 01:52:35;;;;;;;2.60;1.07;;;14.60;99.90;;;;;;5032559;28;20447;-85
2022/06/21 01:55:08;;;;;;;1.20;1.10;;;14.50;99.90;;;;;;5033617;28;20455;-84
2022/06/21 01:57:36;;;;;;;1.30;1.10;;;;;;;;;;5033604;28;20462;-85
2022/06/21 02:00:06;;;;;;;1.70;1.00;;;14.40;99.90;;;;;;5033851;28;20456;-85
2022/06/21 02:02:37;;;;;;;1.50;1.20;;;14.40;99.90;;;;;;5033433;28;20452;-84
2022/06/21 02:05:09;;;;;;;2.50;1.20;;;14.30;99.90;;;;;;5033355;28;20490;-85
2022/06/21 02:07:41;;;;;;;1.40;1.30;;;14.20;99.90;;;;;;5032141;28;20459;-84
2022/06/21 02:10:15;;;;;;;1.30;1.20;;;14.30;99.90;;;;;;5033429;28;20451;-85
2022/06/21 02:12:47;;;;;;;1.10;1.00;;;14.20;99.90;;;;;;5033480;28;20931;-85
2022/06/21 02:15:29;;;;;;;2.60;1.20;;;14.20;99.90;;;;;;5033417;28;20846;-85
2022/06/21 02:17:56;;;;;;;1.53;1.43;;;;;;;;;;5031771;28;20554;-86
2022/06/21 02:20:30;;;;;;;1.93;1.30;;;14.00;99.90;;;;;;5033474;28;20450;-84
2022/06/21 02:22:57;;;;;;;1.73;1.30;;;;;;;;;;5029101;28;20454;-85
2022/06/21 02:25:26;;;;;;;1.70;1.03;;;14.00;99.90;;;;;;5030215;28;20483;-83
2022/06/21 02:27:59;;;;;;;1.43;1.20;;;14.00;99.90;;;;;;5033414;28;20555;-84
2022/06/21 02:30:29;;;;;;;2.03;1.30;;;13.90;99.90;;;;;;5033230;28;20479;-85
2022/06/21 02:32:59;;;;;;;1.80;1.40;;;13.90;99.90;;;;;;5030349;28;20943;-85
2022/06/21 02:35:32;;;;;;;1.80;1.40;;;13.90;99.90;;;;;;5030064;28;20455;-84
2022/06/21 02:38:02;;;;;;;1.90;1.30;;;13.90;99.90;;;;;;5032030;28;20447;-84
2022/06/21 02:40:34;;;;;;;4.50;1.60;;;12.60;99.90;;;;;;5033124;28;20463;-85
2022/06/21 02:43:05;;;;;;;1.60;1.47;;;13.90;99.90;;;;;;5033130;28;20942;-84
2022/06/21 02:45:40;;;;;;;1.40;1.30;;;13.80;99.90;;;;;;5032877;28;20475;-86
2022/06/21 02:48:13;;;;;;;3.23;1.70;;;13.80;99.90;;;;;;5034369;28;20541;-85
2022/06/21 02:50:45;;;;;;;4.47;1.43;;;13.80;99.90;;;;;;5033065;28;20514;-85
2022/06/21 02:53:19;;;;;;;1.80;1.50;;;13.80;99.90;;;;;;5034476;28;20823;-85
2022/06/21 02:55:52;;;;;;;2.00;1.30;;;13.80;99.90;;;;;;5036934;28;20450;-86
2022/06/21 02:58:26;;;;;;;1.63;1.33;;;13.80;99.90;;;;;;5037135;28;20493;-86
2022/06/21 03:00:54;;;;;;;1.87;1.50;;;13.80;99.90;;;;;;5037074;28;20448;-85
2022/06/21 03:03:25;;;;;;;3.77;1.87;;;13.80;99.90;;;;;;5036778;28;20447;-87
2022/06/21 03:05:56;;;;;;;1.50;1.40;;;13.80;99.90;;;;;;5036787;28;20836;-85
2022/06/21 03:08:24;;;;;;;1.43;1.20;;;;;;;;;;5035691;28;20546;-86
2022/06/21 03:10:52;;;;;;;1.70;1.60;;;13.80;99.90;;;;;;5036955;28;20452;-85
2022/06/21 03:13:21;;;;;;;1.40;1.30;;;13.70;99.90;;;;;;5037019;28;20947;-86
2022/06/21 03:15:53;;;;;;;4.50;1.43;;;13.70;99.90;;;;;;5036822;28;20447;-85
2022/06/21 03:18:25;;;;;;;1.40;1.30;;;13.60;99.90;;;;;;5036752;28;20444;-86
2022/06/21 03:20:53;;;;;;;1.27;1.17;;;13.70;99.90;;;;;;5036606;28;20985;-85
2022/06/21 03:23:21;;;;;;;1.87;1.57;;;;;;;;;;5035525;28;20439;-87
2022/06/21 03:25:52;;;;;;;3.43;1.30;;;13.70;99.90;;;;;;5036656;28;21029;-85
2022/06/21 03:28:23;;;;;;;1.47;1.37;;;13.70;99.90;;;;;;5033676;28;20482;-84
2022/06/21 03:30:53;;;;;;;1.40;1.30;;;13.70;99.90;;;;;;5036637;28;20451;-84
2022/06/21 03:33:21;;;;;;;1.90;1.80;;;13.70;99.90;;;;;;5036298;28;20467;-84
2022/06/21 03:35:49;;;;;;;1.73;1.33;;;;;;;;;;5036429;28;20930;-84
2022/06/21 03:38:16;;;;;;;1.50;1.40;;;;;;;;;;5035182;28;20451;-83
2022/06/21 03:43:32;;;;;;;1.80;1.33;;;13.70;99.90;;;;;;5036836;28;20443;-85
2022/06/21 03:46:03;;;;;;;1.70;1.27;;;13.70;99.90;;;;;;5036243;28;20495;-86
2022/06/21 03:48:36;;;;;;;1.90;1.80;;;13.80;99.90;;;;;;5036540;28;20451;-86
2022/06/21 03:51:07;;;;;;;2.10;1.47;;;13.80;99.90;;;;;;5037083;28;20814;-86
2022/06/21 03:53:40;;;;;;;1.50;1.30;;;13.80;99.90;;;;;;5035373;28;20439;-85
2022/06/21 03:56:11;;;;;;;1.20;1.10;;;13.90;99.90;;;;;;5036270;28;20451;-86
2022/06/21 03:58:47;;;;;;;1.60;1.10;;;13.90;99.90;;;;;;5036218;28;20454;-86
2022/06/21 04:01:20;;;;;;;2.23;1.57;;;13.90;99.90;;;;;;5036041;28;20961;-83
2022/06/21 04:03:54;;;;;;;3.30;1.50;;;14.00;99.90;;;;;;5035855;28;20966;-85
2022/06/21 04:06:28;;;;;;;1.50;1.30;;;14.10;99.90;;;;;;5035705;28;20490;-85
2022/06/21 04:09:02;;;;;;;1.47;1.20;;;14.20;99.90;;;;;;5034371;28;20467;-84
2022/06/21 04:11:37;;;;;;;2.20;1.60;;;14.30;99.90;;;;;;5035908;28;20448;-85
2022/06/21 04:14:13;;;;;;;2.40;1.87;;;14.40;99.90;;;;;;5035433;28;20450;-86
2022/06/21 04:16:47;;;;;;;2.17;1.80;;;14.50;99.90;;;;;;5035524;28;20442;-85
2022/06/21 04:19:25;;;;;;;2.17;1.97;;;14.60;99.90;;;;;;5035274;28;20804;-86
2022/06/21 04:21:59;;;;;;;2.77;1.83;;;14.60;99.90;;;;;;5034483;28;20443;-88
2022/06/21 04:24:30;;;;;;;5.90;1.90;;;14.70;99.90;;;;;;5035605;28;20448;-87
2022/06/21 04:27:04;;;;;;;3.50;1.70;;;14.70;99.90;;;;;;5035264;28;20502;-83
2022/06/21 04:29:35;;;;;;;2.00;1.67;;;14.50;99.90;;;;;;5035038;28;20472;-84
2022/06/21 04:32:07;;;;;;;2.10;1.73;;;14.80;99.90;;;;;;5035160;28;20452;-86
2022/06/21 04:34:44;;;;;;;2.43;1.60;;;14.90;99.90;;;;;;5035275;28;20447;-87
2022/06/21 04:37:16;;;;;;;3.57;1.77;;;14.90;99.90;;;;;;5030959;28;20451;-86
2022/06/21 04:39:47;;;;;;;2.80;1.80;;;15.00;99.90;;;;;;5035069;28;20455;-84
2022/06/21 04:42:21;;;;;;;1.80;1.70;;;15.10;99.90;;;;;;5030704;28;20451;-87
2022/06/21 04:44:54;;;;;;;2.00;1.90;;;15.20;99.90;;;;;;5035018;28;20931;-87
2022/06/21 04:47:25;;;;;;;1.70;1.60;;;15.30;99.90;;;;;;5035027;28;20872;-85
2022/06/21 04:49:58;;;;;;;1.70;1.60;;;15.30;99.90;;;;;;5034859;28;20443;-85
2022/06/21 04:52:31;;;;;;;2.23;1.50;;;15.40;99.90;;;;;;5032496;28;20451;-86
2022/06/21 04:54:58;;;;;;;2.73;1.70;;;;;;;;;;5033217;28;20466;-87
2022/06/21 04:57:28;;;;;;;1.87;1.50;;;15.50;99.90;;;;;;5034756;28;20478;-85
2022/06/21 04:59:58;;;;;;;1.57;1.37;;;15.60;99.90;;;;;;5034665;28;20447;-85
2022/06/21 05:02:26;;;;;;;2.53;1.67;;;;;;;;;;5032428;28;20452;-84
2022/06/21 05:04:58;;;;;;;1.60;1.40;;;15.70;99.90;;;;;;5036713;28;20450;-84
2022/06/21 05:07:30;;;;;;;2.27;1.67;;;15.60;99.90;;;;;;5034427;28;21202;-86
2022/06/21 05:09:59;;;;;;;1.40;1.27;;;;;;;;;;5035561;28;20821;-88
2022/06/21 05:12:35;;;;;;;2.60;1.90;;;15.70;99.90;;;;;;5036108;28;20462;-86
2022/06/21 05:15:06;;;;;;;2.90;1.80;;;15.60;99.90;;;;;;5035537;28;20447;-85
2022/06/21 05:17:35;;;;;;;2.50;1.43;;;15.60;99.90;;;;;;5036206;28;20451;-86
2022/06/21 05:20:06;;;;;;;1.67;1.57;;;15.60;99.90;;;;;;5037042;28;20440;-88
2022/06/21 05:22:39;;;;;;;2.17;1.70;;;15.70;99.90;;;;;;5035341;28;20447;-89
2022/06/21 05:25:16;;;;;;;2.20;1.40;;;15.60;99.90;;;;;;5018828;28;20447;-87
2022/06/21 05:27:48;;;;;;;3.93;1.50;;;15.60;99.90;;;;;;5038841;28;20487;-89
2022/06/21 05:30:21;;;;;;;3.80;1.40;;;15.60;99.90;;;;;;5039767;28;20514;-86
2022/06/21 05:32:53;;;;;;;1.37;1.27;;;15.60;99.90;;;;;;5023759;28;20439;-88
2022/06/21 05:35:24;;;;;;;2.03;1.70;;;15.80;99.90;;;;;;5038474;28;20793;-88
2022/06/21 05:37:53;;;;;;;2.10;1.63;;;16.20;99.90;;;;;;5040363;28;20444;-88
2022/06/21 05:40:44;;;;;;;4.67;2.10;;;16.50;99.90;;;;;;5043857;28;20440;-93
2022/06/21 05:43:26;;;;;;;2.80;1.57;;;16.90;99.90;;;;;;4998965;28;20938;-86
2022/06/21 05:46:00;;;;;;;1.93;1.63;;;17.10;99.90;;;;;;4999967;28;20479;-88
2022/06/21 05:48:32;;;;;;;2.00;1.57;;;16.80;99.90;;;;;;5031282;28;20482;-88
2022/06/21 05:51:17;;;;;;;4.67;1.97;;;17.10;99.90;;;;;;5065089;23;20492;-89
2022/06/21 05:53:48;;;;;;;2.80;1.83;;;17.00;99.90;;;;;;5063256;28;20849;-86
2022/06/21 05:56:21;;;;;;;1.77;1.43;;;16.90;99.90;;;;;;5058137;28;20450;-88
2022/06/21 05:58:52;;;;;;;2.30;1.97;;;16.30;99.90;;;;;;5057751;28;20447;-89
2022/06/21 06:01:23;;;;;;;4.37;2.10;;;16.20;99.90;;;;;;5055427;28;20442;-91
2022/06/21 06:03:56;;;;;;;2.80;1.80;;;16.40;99.90;;;;;;5067835;28;20449;-88
2022/06/21 06:06:24;;;;;;;3.43;2.03;;;16.60;99.90;;;;;;5062925;28;20478;-86
2022/06/21 06:08:57;;;;;;;2.97;1.97;;;16.70;99.90;;;;;;5068882;22;20498;-91
2022/06/21 06:11:57;;;;;;;2.20;1.70;;;16.60;99.90;;;;;;5063989;28;20454;-92
2022/06/21 06:14:14;;;;;;;3.30;2.60;;;;;;;;;;5069717;28;20442;-92
2022/06/21 06:16:46;;;;;;;2.53;2.33;;;17.20;99.90;;;;;;5067782;28;20458;-89
2022/06/21 06:19:20;;;;;;;3.83;2.07;;;17.90;99.90;;;;;;5024434;28;20839;-91
2022/06/21 06:21:52;;;;;;;3.60;1.87;;;18.50;99.90;;;;;;5050960;28;20541;-89
2022/06/21 06:24:22;;;;;;;5.77;2.30;;;18.70;99.90;;;;;;5049453;28;20458;-92
2022/06/21 06:26:54;;;;;;;2.97;2.07;;;19.20;99.60;;;;;;5058862;28;20474;-89
2022/06/21 06:29:27;;;;;;;3.37;2.13;;;19.50;97.90;;;;;;5064340;28;20442;-91
2022/06/21 06:31:59;;;;;;;3.40;2.47;;;18.70;99.90;;;;;;5059477;28;20450;-91
2022/06/21 06:34:29;;;;;;;2.53;2.30;;;18.60;99.90;;;;;;5055100;28;20431;-92
2022/06/21 06:37:01;;;;;;;3.93;2.40;;;19.50;98.40;;;;;;5048524;28;20465;-90
2022/06/21 06:39:30;;;;;;;3.80;2.43;;;19.80;97.00;;;;;;5054359;28;20808;-93
2022/06/21 06:42:03;;;;;;;3.60;2.33;;;20.20;96.70;;;;;;5049895;28;20462;-93
2022/06/21 06:44:36;;;;;;;4.50;2.80;;;19.90;95.10;;;;;;5057842;28;20961;-94
2022/06/21 06:47:04;;;;;;;3.97;2.20;;;19.70;97.00;;;;;;5057145;28;20490;-95
2022/06/21 06:49:51;;;;;;;4.70;2.40;;;20.20;97.10;;;;;;5062114;28;20816;-88
2022/06/21 06:52:25;;;;;;;3.53;2.70;;;20.50;94.50;;;;;;5057160;28;20449;-93
2022/06/21 06:54:58;;;;;;;3.20;2.17;;;20.90;94.30;;;;;;5058573;28;20487;-89
2022/06/21 06:57:31;;;;;;;2.60;2.40;;;20.90;94.10;;;;;;5059259;28;20522;-89
2022/06/21 06:59:58;;;;;;;1.93;1.83;;;;;;;;;;5070748;22;20936;-88
2022/06/21 07:02:33;;;;;;;3.67;2.20;;;21.50;92.40;;;;;;5081896;22;20565;-87
2022/06/21 07:05:07;;;;;;;4.30;2.27;;;21.60;92.00;;;;;;5040805;28;20454;-87
2022/06/21 07:07:45;;;;;;;3.83;2.10;;;21.20;92.10;;;;;;5037669;28;20509;-93
2022/06/21 07:10:16;;;;;;;4.10;2.00;;;21.20;94.00;;;;;;4970063;28;20457;-86
2022/06/21 07:12:44;;;;;;;3.30;2.93;;;;;;;;;;4977430;28;20941;-91
2022/06/21 07:15:12;;;;;;;2.87;1.97;;;21.40;92.00;;;;;;4968089;28;20528;-88
2022/06/21 07:17:42;;;;;;;3.00;1.90;;;21.70;91.20;;;;;;4972642;28;20450;-85
2022/06/21 07:20:15;;;;;;;2.30;1.50;;;21.10;92.50;;;;;;4971755;28;20442;-84
2022/06/21 07:22:44;;;;;;;4.30;2.00;;;21.40;96.40;;;;;;4967721;28;20458;-85
2022/06/21 07:25:20;;;;;;;2.43;2.20;;;20.20;96.60;;;;;;4971638;28;20490;-87
2022/06/21 07:27:53;;;;;;;2.37;2.10;;;20.60;93.60;;;;;;4986122;28;20493;-86
2022/06/21 07:30:22;;;;;;;4.53;2.20;;;20.80;92.40;;;;;;4986652;28;20460;-83
2022/06/21 07:32:54;;;;;;;2.00;1.80;;;20.20;91.40;;;;;;5008430;28;20456;-87
2022/06/21 07:35:27;;;;;;;3.43;2.37;;;20.20;93.00;;;;;;5016355;28;20460;-86
2022/06/21 07:38:02;;;;;;;3.03;2.00;;;20.50;92.30;;;;;;5031700;28;20927;-85
2022/06/21 07:40:35;;;;;;;3.57;2.30;;;20.90;90.80;;;;;;5033239;28;20797;-85
2022/06/21 07:43:08;;;;;;;2.37;2.03;;;20.50;90.40;;;;;;5024916;28;20451;-87
2022/06/21 07:45:39;;;;;;;2.50;2.30;;;21.00;90.80;;;;;;5036205;28;20497;-87
2022/06/21 07:48:14;;;;;;;2.37;2.10;;;20.40;91.00;;;;;;5036289;28;20498;-86
2022/06/21 07:50:46;;;;;;;2.67;2.27;;;19.80;91.80;;;;;;5038882;28;20443;-86
2022/06/21 07:53:22;;;;;;;4.33;2.77;;;20.40;90.60;;;;;;5057477;28;20435;-88
2022/06/21 07:55:53;;;;;;;4.83;2.13;;;20.50;91.80;;;;;;5047055;28;20450;-89
2022/06/21 07:58:29;;;;;;;3.60;2.10;;;20.70;91.20;;;;;;5033210;28;20443;-85
2022/06/21 08:06:52;;;;;;;5.80;2.47;;;21.40;83.80;;;;;;5034828;28;20490;-87
2022/06/21 08:09:30;;;;;;;2.30;1.80;;;21.50;84.80;;;;;;5036358;28;20448;-86
2022/06/21 08:12:00;;;;;;;3.83;2.07;;;;;;;;;;5035619;28;20447;-87
2022/06/21 08:14:32;;;;;;;2.30;2.10;;;20.10;88.00;;;;;;5035911;28;20451;-86
2022/06/21 08:17:06;;;;;;;6.40;2.30;;;20.00;88.60;;;;;;5035451;28;20864;-82
2022/06/21 08:19:38;;;;;;;4.10;1.83;;;20.20;88.80;;;;;;5035432;28;20934;-83
2022/06/21 08:22:09;;;;;;;1.67;1.50;;;20.00;87.20;;;;;;5034308;28;20483;-84
2022/06/21 08:24:43;;;;;;;3.57;2.10;;;19.90;89.40;;;;;;5035473;28;20455;-82
2022/06/21 08:27:18;;;;;;;3.37;1.93;;;20.00;90.00;;;;;;5031354;28;20490;-84
2022/06/21 08:29:51;;;;;;;2.93;1.57;;;19.90;90.20;;;;;;5035306;28;20454;-85
2022/06/21 08:32:25;;;;;;;2.30;2.07;;;20.50;88.00;;;;;;5035018;28;20452;-84
2022/06/21 08:34:56;;;;;;;3.13;1.73;;;20.50;87.10;;;;;;5034986;28;20447;-85
2022/06/21 08:37:33;;;;;;;1.83;1.00;;;20.10;87.80;;;;;;5036595;28;20454;-89
2022/06/21 08:40:11;;;;;;;2.20;1.93;;;19.60;90.20;;;;;;5035161;28;20451;-85
2022/06/21 08:43:09;;;;;;;5.37;2.27;;;19.90;90.20;;;;;;5031893;28;20521;-84
2022/06/21 08:46:04;;;;;;;1.67;1.53;;;19.80;90.60;;;;;;5033252;28;20443;-84
2022/06/21 08:48:59;;;;;;;5.60;1.90;;;19.60;90.10;;;;;;5033823;28;20499;-82
2022/06/21 08:52:09;;;;;;;2.20;1.70;;;19.50;91.20;;;;;;5034321;28;20452;-84
2022/06/21 08:54:47;;;;;;;1.97;1.60;;;19.30;91.40;;;;;;5034740;28;20451;-84
2022/06/21 08:57:22;;;;;;;4.83;1.90;;;18.70;91.50;;;;;;5035447;28;20459;-84
2022/06/21 09:00:01;;;;;;;2.13;1.80;;;19.20;92.80;;;;;;5035786;28;20460;-83
2022/06/21 09:02:40;;;;;;;10.33;2.30;;;19.30;94.10;;;;;;5034968;28;20447;-83
2022/06/21 09:05:16;;;;;;;1.87;1.77;;;19.60;93.50;;;;;;5032927;28;20443;-83
2022/06/21 09:08:17;;;;;;;2.00;1.80;;;19.50;91.80;;;;;;5033697;28;20506;-84
2022/06/21 09:11:01;;;;;;;2.80;1.67;;;19.20;92.20;;;;;;5031098;28;20456;-83
2022/06/21 09:13:56;;;;;;;2.03;1.83;;;19.40;92.20;;;;;;5033405;28;20452;-83
2022/06/21 09:16:29;;;;;;;3.97;3.10;;;19.70;91.00;;;;;;5034474;28;20458;-85
2022/06/21 09:19:10;;;;;;;2.37;2.10;;;19.80;91.20;;;;;;5034374;28;20486;-83
2022/06/21 09:21:49;;;;;;;2.00;1.77;;;20.60;90.10;;;;;;5034132;28;20447;-82
2022/06/21 09:24:30;;;;;;;3.40;2.30;;;21.50;86.80;;;;;;5033934;28;20458;-82
2022/06/21 09:27:02;;;;;;;3.23;1.90;;;21.80;84.80;;;;;;5033914;28;20538;-83
2022/06/21 09:29:35;;;;;;;4.27;2.20;;;22.70;83.70;;;;;;5034214;28;20439;-83
2022/06/21 09:32:18;;;;;;;1.90;1.70;;;23.50;83.00;;;;;;5033008;28;20733;-82
2022/06/21 09:34:58;;;;;;;2.83;2.40;;;23.60;77.70;;;;;;5033394;28;20444;-83
2022/06/21 09:37:38;;;;;;;1.77;1.57;;;24.20;78.00;;;;;;5033407;28;20499;-82
2022/06/21 09:40:13;;;;;;;2.30;2.10;;;24.40;76.30;;;;;;5030522;28;20535;-84
2022/06/21 09:42:47;;;;;;;2.03;1.83;;;23.90;76.80;;;;;;5031437;28;20455;-85
2022/06/21 09:45:23;;;;;;;3.13;2.40;;;24.20;77.10;;;;;;5032348;28;20458;-84
2022/06/21 09:48:00;;;;;;;2.73;2.10;;;24.30;75.30;;;;;;5033853;28;20502;-85
2022/06/21 09:50:36;;;;;;;3.50;1.87;;;23.60;77.00;;;;;;5033436;28;20906;-83
2022/06/21 09:53:10;;;;;;;3.10;2.30;;;24.30;73.30;;;;;;5032363;28;20939;-83
2022/06/21 09:55:45;;;;;;;4.23;2.30;;;24.30;74.10;;;;;;5033519;28;20455;-84
2022/06/21 09:58:19;;;;;;;2.73;1.90;;;24.20;75.90;;;;;;5033566;28;20455;-84
2022/06/21 10:00:53;;;;;;;3.60;2.67;;;24.80;76.50;;;;;;5033237;28;20819;-85
2022/06/21 10:03:33;;;;;;;2.60;2.40;;;24.90;74.50;;;;;;5033464;28;20475;-83
2022/06/21 10:06:08;;;;;;;2.33;2.10;;;24.60;74.50;;;;;;5033492;28;20451;-86
2022/06/21 10:08:49;;;;;;;2.93;2.60;;;24.80;74.50;;;;;;5032148;28;20494;-85
2022/06/21 10:11:23;;;;;;;3.00;2.23;;;24.10;76.10;;;;;;5033257;28;20447;-83
2022/06/21 10:14:15;;;;;;;2.63;2.00;;;24.80;78.10;;;;;;4997981;28;20443;-84
2022/06/21 10:16:59;;;;;;;4.20;2.03;;;25.40;74.80;;;;;;5033035;28;20501;-83
2022/06/21 10:19:39;;;;;;;3.50;2.33;;;25.50;77.20;;;;;;5030168;28;20459;-85
2022/06/21 10:22:26;;;;;;;3.83;2.37;;;25.10;79.50;;;;;;5032008;28;20792;-85
2022/06/21 10:25:17;;;;;;;2.97;2.50;;;25.40;81.40;;;;;;5033435;28;20469;-86
2022/06/21 10:28:08;;;;;;;4.00;2.70;;;25.90;76.00;;;;;;5037532;28;20490;-84
2022/06/21 10:31:00;;;;;;;5.00;2.37;;;25.80;76.70;;;;;;5053863;28;20435;-83
2022/06/21 10:33:44;;;;;;;2.33;2.13;;;25.70;75.00;;;;;;5034830;28;20805;-84
2022/06/21 10:36:25;;;;;;;3.40;2.70;;;25.30;77.30;;;;;;5033474;28;20468;-84
2022/06/21 10:39:21;;;;;;;2.30;2.10;;;25.10;74.60;;;;;;5033103;28;20455;-86
2022/06/21 10:45:11;;;;;;;2.27;2.07;;;25.50;72.70;;;;;;5033590;28;20454;-85
2022/06/21 10:48:20;;;;;;;2.27;2.07;;;25.50;77.30;;;;;;5028903;28;20478;-84
2022/06/21 10:50:57;;;;;;;2.80;2.23;;;25.30;77.50;;;;;;5032572;28;20455;-86
2022/06/21 10:54:08;;;;;;;2.87;2.60;;;25.20;75.90;;;;;;5033011;28;20509;-84
2022/06/21 11:02:47;;;;;;;2.77;2.27;;;25.70;87.70;;;;;;5032570;28;20489;-83
2022/06/21 11:05:20;;;;;;;4.53;3.40;;;26.20;86.40;;;;;;5033190;28;20451;-84
2022/06/21 11:07:56;;;;;;;4.93;2.63;;;26.30;81.40;;;;;;5033402;28;20486;-92
2022/06/21 11:10:28;;;;;;;3.70;2.60;;;26.60;86.90;;;;;;5031986;28;20934;-87
2022/06/21 11:13:04;;;;;;;4.60;2.43;;;26.30;77.30;;;;;;5029536;28;20523;-85
2022/06/21 11:15:42;;;;;;;3.13;2.40;;;26.10;79.80;;;;;;5037349;28;20512;-87
2022/06/21 11:18:20;;;;;;;45.87;41.53;;;25.90;92.20;;;;;;5037117;28;20455;-85
2022/06/21 11:20:59;;;;;;;3.87;2.53;;;26.20;85.90;;;;;;5037038;28;20458;-86
2022/06/21 11:23:39;;;;;;;2.93;2.73;;;26.20;87.50;;;;;;5036361;28;20454;-92
2022/06/21 11:26:22;;;;;;;3.73;2.67;;;25.60;85.20;;;;;;5037619;28;20509;-89
2022/06/21 11:28:59;;;;;;;3.60;2.93;;;25.10;82.60;;;;;;5038703;28;20860;-91
2022/06/21 11:31:34;;;;;;;2.77;2.53;;;25.20;81.90;;;;;;5038062;28;20456;-87
2022/06/21 11:34:08;;;;;;;6.27;3.07;;;25.00;81.80;;;;;;5038169;28;20450;-90
2022/06/21 11:36:44;;;;;;;5.40;2.90;;;24.70;83.70;;;;;;5039455;28;20471;-90
2022/06/21 11:39:25;;;;;;;3.27;2.97;;;24.30;80.30;;;;;;5037342;28;20455;-91
2022/06/21 11:42:09;;;;;;;3.57;2.70;;;24.50;85.00;;;;;;5039893;28;20439;-89
2022/06/21 11:44:58;;;;;;;2.87;2.67;;;25.30;82.30;;;;;;5042635;28;20454;-89
2022/06/21 11:47:55;;;;;;;3.37;2.57;;;25.80;82.50;;;;;;5036107;28;20459;-90
2022/06/21 11:50:24;;;;;;;4.37;3.13;;;;;;;;;;5037109;28;20810;-94
2022/06/21 11:53:25;;;;;;;3.17;2.97;;;25.90;77.80;;;;;;5034029;28;20486;-85
2022/06/21 11:56:00;;;;;;;3.53;2.90;;;25.80;81.20;;;;;;5040149;28;20451;-87
2022/06/21 11:58:33;;;;;;;6.13;2.80;;;25.40;81.60;;;;;;5039619;28;20960;-89
2022/06/21 12:01:08;;;;;;;5.50;3.10;;;25.50;83.10;;;;;;5039171;28;20817;-91
2022/06/21 12:03:46;;;;;;;3.43;3.10;;;24.80;84.20;;;;;;5039913;28;20489;-92
2022/06/21 12:06:19;;;;;;;5.37;3.20;;;24.80;85.70;;;;;;5034169;28;20962;-90
2022/06/21 12:08:53;;;;;;;3.20;2.90;;;25.40;84.80;;;;;;5041395;28;20487;-91
2022/06/21 12:11:30;;;;;;;6.70;3.17;;;26.10;84.90;;;;;;5036973;28;20458;-93
2022/06/21 12:14:14;;;;;;;3.60;3.30;;;25.80;82.20;;;;;;5040427;28;20451;-91
2022/06/21 12:16:48;;;;;;;4.57;3.37;;;25.20;84.70;;;;;;5038263;28;20458;-88
2022/06/21 12:19:18;;;;;;;2.87;2.67;;;25.40;84.00;;;;;;5034938;28;20478;-89
2022/06/21 12:21:57;;;;;;;3.27;3.07;;;25.70;82.50;;;;;;5033456;28;20448;-86
2022/06/21 12:24:27;;;;;;;3.60;3.00;;;26.40;81.50;;;;;;5037260;28;20448;-92
2022/06/21 12:26:57;;;;;;;6.07;3.40;;;;;;;;;;5033828;28;20455;-85
2022/06/21 12:29:28;;;;;;;3.80;3.33;;;25.40;81.90;;;;;;5038112;28;20494;-88
2022/06/21 12:32:00;;;;;;;3.40;3.10;;;25.30;87.20;;;;;;5038144;28;20451;-90
2022/06/21 12:34:31;;;;;;;4.53;3.20;;;25.20;87.90;;;;;;5038142;28;20479;-93
2022/06/21 12:37:02;;;;;;;3.57;3.27;;;24.90;87.10;;;;;;5036452;28;20455;-89
2022/06/21 12:39:35;;;;;;;3.33;3.00;;;26.00;88.80;;;;;;5032481;28;20447;-85
2022/06/21 12:42:18;;;;;;;5.80;3.20;;;24.60;90.00;;;;;;5036825;28;20454;-92
2022/06/21 12:44:57;;;;;;;3.63;3.33;;;24.30;90.60;;;;;;5034525;28;20458;-91
2022/06/21 12:47:37;;;;;;;3.80;3.00;;;24.20;90.60;;;;;;5042246;28;20462;-94
2022/06/21 12:50:40;;;;;;;5.13;4.10;;;24.10;89.30;;;;;;5035961;28;20455;-90
2022/06/21 12:53:23;;;;;;;3.97;3.67;;;24.10;92.50;;;;;;5043697;28;20451;-90
2022/06/21 12:55:57;;;;;;;3.90;3.50;;;24.90;90.60;;;;;;5040790;28;20818;-87
2022/06/21 12:58:39;;;;;;;8.20;4.07;;;25.30;88.80;;;;;;5035785;28;20456;-89
2022/06/21 13:01:14;;;;;;;3.90;3.47;;;26.10;89.00;;;;;;5035753;28;20443;-90
2022/06/21 13:04:04;;;;;;;3.30;3.03;;;26.60;82.00;;;;;;5037543;28;20489;-86
2022/06/21 13:06:52;;;;;;;3.87;3.10;;;27.10;84.40;;;;;;5045326;28;20427;-91
2022/06/21 13:09:43;;;;;;;3.90;3.60;;;27.00;93.40;;;;;;5059388;28;20499;-88
2022/06/21 13:12:24;;;;;;;4.07;3.67;;;26.60;96.30;;;;;;5035447;28;20440;-88
2022/06/21 13:15:08;;;;;;;63.10;46.17;;;26.60;95.10;;;;;;5036342;28;20455;-92
2022/06/21 13:18:11;;;;;;;9.73;3.90;;;27.20;87.70;;;;;;5059579;23;20487;-88
2022/06/21 13:20:47;;;;;;;192.83;104.60;;;26.90;99.90;;;;;;5023432;28;20935;-92
2022/06/21 13:23:28;;;;;;;4.17;3.83;;;26.80;91.70;;;;;;5028685;28;20454;-94
2022/06/21 13:26:03;;;;;;;4.50;3.60;;;27.00;91.00;;;;;;5037977;28;20490;-90
2022/06/21 13:28:53;;;;;;;4.13;3.73;;;27.30;83.40;;;;;;5035009;28;20478;-87
2022/06/21 13:31:27;;;;;;;4.27;3.97;;;26.80;90.70;;;;;;5032611;28;20467;-89
2022/06/21 13:34:00;;;;;;;4.77;4.27;;;26.30;91.50;;;;;;5037002;28;20439;-93
2022/06/21 13:36:34;;;;;;;4.60;3.80;;;25.90;92.40;;;;;;5037638;28;20525;-90
2022/06/21 13:39:11;;;;;;;4.23;3.83;;;26.00;91.50;;;;;;5040638;28;20447;-86
2022/06/21 13:44:37;;;;;;;4.33;3.90;;;26.10;91.30;;;;;;5035125;28;20435;-92
2022/06/21 13:47:12;;;;;;;4.70;4.20;;;26.10;90.70;;;;;;5037053;28;20462;-91
2022/06/21 13:49:44;;;;;;;6.10;4.03;;;26.70;89.80;;;;;;5038144;28;20836;-88
2022/06/21 13:52:18;;;;;;;4.43;4.03;;;27.10;89.60;;;;;;5043727;28;20448;-90
2022/06/21 13:54:51;;;;;;;5.77;4.33;;;27.50;87.50;;;;;;5076266;22;20493;-89
2022/06/21 13:57:22;;;;;;;5.90;5.00;;;;;;;;;;5059202;28;20446;-87